Time;durP1;ratioP1;P1;durP2;ratioP2;P2;SDS_P1;SDS_P2;PMS_P1;PMS_P2;Temp;Humidity;BMP_temperature;BMP_pressure;BME280_temperature;BME280_humidity;BME280_pressure;Samples;Min_cycle;Max_cycle;Signal;HPM_P1;HPM_P2
2022/03/06 00:01:26;;;;;;;20.92;10.77;;;2.30;99.90;;;;;;5031613;28;20053;-65
2022/03/06 00:03:54;;;;;;;16.75;9.80;;;2.30;99.90;;;;;;5023087;28;20076;-66
2022/03/06 00:06:21;;;;;;;20.45;9.95;;;2.30;99.90;;;;;;5037670;28;20056;-65
2022/03/06 00:08:49;;;;;;;19.48;10.32;;;2.30;99.90;;;;;;5030964;28;20041;-65
2022/03/06 00:11:17;;;;;;;17.30;9.80;;;2.30;99.90;;;;;;5032018;28;20671;-65
2022/03/06 00:13:44;;;;;;;18.38;9.77;;;2.20;99.90;;;;;;5031301;28;20128;-66
2022/03/06 00:16:12;;;;;;;26.67;12.93;;;2.20;99.90;;;;;;5031372;28;20041;-65
2022/03/06 00:18:40;;;;;;;21.85;11.25;;;2.20;99.90;;;;;;5034744;28;20037;-65
2022/03/06 00:21:09;;;;;;;16.73;9.65;;;2.20;99.90;;;;;;5038840;28;20086;-65
2022/03/06 00:23:36;;;;;;;17.52;9.27;;;2.20;99.90;;;;;;5035529;28;20405;-65
2022/03/06 00:26:04;;;;;;;17.10;10.35;;;2.20;99.90;;;;;;5049317;28;20515;-65
2022/03/06 00:28:32;;;;;;;18.92;10.07;;;2.10;99.90;;;;;;5035532;28;20050;-65
2022/03/06 00:30:59;;;;;;;17.02;9.25;;;2.10;99.90;;;;;;5032253;28;20068;-65
2022/03/06 00:33:26;;;;;;;17.58;9.40;;;2.10;99.90;;;;;;5032278;28;20034;-65
2022/03/06 00:35:54;;;;;;;18.52;9.60;;;2.00;99.90;;;;;;5033607;28;20160;-65
2022/03/06 00:38:21;;;;;;;17.50;9.45;;;1.90;99.90;;;;;;5048490;28;20786;-65
2022/03/06 00:40:49;;;;;;;17.05;9.32;;;1.90;99.90;;;;;;5032218;28;20049;-65
2022/03/06 00:43:17;;;;;;;18.20;10.13;;;1.80;99.90;;;;;;5029059;28;20049;-65
2022/03/06 00:45:46;;;;;;;17.10;9.18;;;1.80;99.90;;;;;;5034201;28;20479;-65
2022/03/06 00:48:13;;;;;;;18.13;9.93;;;1.70;99.90;;;;;;5042387;28;20045;-65
2022/03/06 00:50:42;;;;;;;19.38;9.77;;;1.60;99.90;;;;;;5043843;28;20049;-63
2022/03/06 00:53:09;;;;;;;20.30;9.73;;;1.60;99.90;;;;;;5042459;28;20519;-65
2022/03/06 00:55:37;;;;;;;17.88;10.00;;;1.60;99.90;;;;;;5047024;28;20079;-65
2022/03/06 00:58:09;;;;;;;20.58;9.93;;;1.50;99.90;;;;;;5032728;28;20056;-64
2022/03/06 01:00:39;;;;;;;;;;;1.50;99.90;;;;;;5027419;28;20033;-64
2022/03/06 01:03:10;;;;;;;19.67;9.90;;;1.40;99.90;;;;;;5029620;28;19924;-65
2022/03/06 01:05:39;;;;;;;17.40;10.15;;;1.40;99.90;;;;;;5039480;28;20119;-64
2022/03/06 01:08:07;;;;;;;20.58;10.27;;;1.30;99.90;;;;;;5039555;28;20049;-64
2022/03/06 01:10:37;;;;;;;18.55;9.70;;;1.20;99.90;;;;;;5040088;28;20405;-64
2022/03/06 01:13:06;;;;;;;18.33;10.68;;;1.10;99.90;;;;;;5032584;28;20064;-64
2022/03/06 01:15:36;;;;;;;17.40;9.15;;;1.10;99.90;;;;;;5027973;28;20492;-65
2022/03/06 01:18:08;;;;;;;17.75;9.60;;;0.90;99.90;;;;;;5036481;28;20096;-64
2022/03/06 01:20:37;;;;;;;28.55;12.43;;;0.80;99.90;;;;;;5037503;28;20111;-64
2022/03/06 01:23:06;;;;;;;25.38;12.27;;;0.70;99.90;;;;;;5035630;28;20216;-64
2022/03/06 01:25:33;;;;;;;18.90;10.55;;;0.70;99.90;;;;;;5037284;28;20045;-64
2022/03/06 01:28:04;;;;;;;19.80;10.73;;;0.60;99.90;;;;;;5042849;28;20045;-64
2022/03/06 01:30:31;;;;;;;17.05;9.57;;;0.50;99.90;;;;;;5025683;28;20045;-64
2022/03/06 01:33:00;;;;;;;21.08;10.60;;;0.50;99.90;;;;;;5026501;28;20068;-64
2022/03/06 01:35:28;;;;;;;19.60;10.23;;;0.40;99.90;;;;;;5035876;28;20481;-65
2022/03/06 01:37:55;;;;;;;17.60;9.80;;;0.30;99.90;;;;;;5030476;28;20381;-65
2022/03/06 01:40:23;;;;;;;17.75;9.90;;;0.30;99.90;;;;;;5035109;28;20527;-64
2022/03/06 01:42:51;;;;;;;18.48;10.43;;;0.20;99.90;;;;;;5022864;28;20428;-65
2022/03/06 01:45:23;;;;;;;17.60;9.77;;;0.20;99.90;;;;;;5041115;28;20065;-63
2022/03/06 01:47:53;;;;;;;17.60;9.82;;;0.10;99.90;;;;;;5049542;28;20056;-65
2022/03/06 01:50:28;;;;;;;20.15;10.50;;;0.10;99.90;;;;;;5042283;28;20072;-65
2022/03/06 01:52:57;;;;;;;18.13;9.68;;;0.00;99.90;;;;;;5033230;28;20063;-65
2022/03/06 01:55:27;;;;;;;19.90;9.70;;;0.00;99.90;;;;;;5052598;28;20048;-64
2022/03/06 01:57:56;;;;;;;16.95;9.40;;;-0.10;99.90;;;;;;5031784;28;20045;-63
2022/03/06 02:00:27;;;;;;;17.70;10.38;;;-0.10;99.90;;;;;;5017536;28;20136;-64
2022/03/06 02:02:55;;;;;;;16.95;10.13;;;-0.10;99.90;;;;;;5021274;28;20417;-64
2022/03/06 02:05:23;;;;;;;18.58;9.80;;;-0.20;99.90;;;;;;5033828;28;20041;-64
2022/03/06 02:07:50;;;;;;;19.00;10.68;;;-0.20;99.90;;;;;;5048654;28;20056;-65
2022/03/06 02:10:18;;;;;;;18.80;10.13;;;-0.20;99.90;;;;;;5036314;28;20038;-64
2022/03/06 02:12:47;;;;;;;18.30;9.90;;;-0.20;99.90;;;;;;5046858;28;20091;-65
2022/03/06 02:15:16;;;;;;;18.67;9.93;;;-0.20;99.90;;;;;;5033600;28;20095;-66
2022/03/06 02:17:45;;;;;;;20.17;10.20;;;-0.10;99.90;;;;;;5020949;28;20049;-65
2022/03/06 02:20:20;;;;;;;16.83;9.85;;;-0.10;99.90;;;;;;5022070;28;20171;-66
2022/03/06 02:22:55;;;;;;;17.77;10.13;;;-0.10;99.90;;;;;;5035852;28;20049;-65
2022/03/06 02:25:25;;;;;;;18.70;10.45;;;-0.20;99.90;;;;;;5033476;28;20045;-66
2022/03/06 02:27:54;;;;;;;16.95;10.05;;;-0.10;99.90;;;;;;5051860;28;20052;-64
2022/03/06 02:30:32;;;;;;;19.60;10.25;;;-0.10;99.90;;;;;;5037932;28;20041;-66
2022/03/06 02:33:02;;;;;;;18.08;9.85;;;-0.10;99.90;;;;;;5052600;28;20041;-65
2022/03/06 02:35:30;;;;;;;19.00;10.10;;;-0.10;99.90;;;;;;5050006;28;20039;-65
2022/03/06 02:37:59;;;;;;;17.20;9.70;;;-0.10;99.90;;;;;;5029238;28;20061;-65
2022/03/06 02:40:29;;;;;;;17.65;9.80;;;0.00;99.90;;;;;;5036611;28;20046;-66
2022/03/06 02:43:02;;;;;;;17.77;10.02;;;0.00;99.90;;;;;;5049657;28;20455;-65
2022/03/06 02:45:29;;;;;;;18.27;9.93;;;0.00;99.90;;;;;;5029972;28;20053;-64
2022/03/06 02:47:57;;;;;;;18.67;9.90;;;0.10;99.90;;;;;;5043265;28;20053;-65
2022/03/06 02:50:28;;;;;;;17.77;9.73;;;0.10;99.90;;;;;;5019710;28;20050;-65
2022/03/06 02:52:56;;;;;;;19.08;10.15;;;0.20;99.90;;;;;;5020536;28;20045;-65
2022/03/06 02:55:24;;;;;;;18.52;10.52;;;0.30;99.90;;;;;;5031853;28;20061;-65
2022/03/06 02:57:52;;;;;;;17.77;10.38;;;0.30;99.90;;;;;;5046821;28;20119;-65
2022/03/06 03:00:21;;;;;;;16.33;9.77;;;0.30;99.90;;;;;;5033206;28;20099;-65
2022/03/06 03:02:49;;;;;;;17.15;9.00;;;0.30;99.90;;;;;;5033289;28;20045;-65
2022/03/06 03:05:18;;;;;;;19.83;9.73;;;0.40;99.90;;;;;;5031377;28;20045;-65
2022/03/06 03:07:48;;;;;;;20.60;9.98;;;0.40;99.90;;;;;;5033191;28;20041;-65
2022/03/06 03:10:18;;;;;;;17.42;9.55;;;0.40;99.90;;;;;;5017996;28;20065;-65
2022/03/06 03:12:46;;;;;;;16.83;9.95;;;0.40;99.90;;;;;;5024098;28;20046;-65
2022/03/06 03:15:15;;;;;;;18.98;9.98;;;0.50;99.90;;;;;;5031041;28;20531;-65
2022/03/06 03:17:43;;;;;;;17.83;9.60;;;0.50;99.90;;;;;;5030928;28;20144;-65
2022/03/06 03:20:12;;;;;;;17.90;9.65;;;0.50;99.90;;;;;;5034366;28;20512;-65
2022/03/06 03:22:39;;;;;;;16.67;9.65;;;0.50;99.90;;;;;;5036507;28;20045;-65
2022/03/06 03:25:08;;;;;;;18.55;10.68;;;0.50;99.90;;;;;;5032952;28;20050;-66
2022/03/06 03:27:36;;;;;;;17.40;9.52;;;0.60;99.90;;;;;;5026924;28;20591;-66
2022/03/06 03:30:05;;;;;;;19.13;10.32;;;0.60;99.90;;;;;;5030632;28;20041;-66
2022/03/06 03:32:33;;;;;;;15.95;9.65;;;0.70;99.90;;;;;;5029435;28;20077;-66
2022/03/06 03:35:00;;;;;;;19.00;10.25;;;0.70;99.90;;;;;;5031316;28;20049;-65
2022/03/06 03:37:27;;;;;;;15.65;9.35;;;0.70;99.90;;;;;;5012726;28;20385;-65
2022/03/06 03:39:55;;;;;;;16.92;9.57;;;0.80;99.90;;;;;;5025211;28;20060;-66
2022/03/06 03:42:22;;;;;;;16.48;9.38;;;0.80;99.90;;;;;;5033080;28;20519;-65
2022/03/06 03:44:49;;;;;;;14.63;9.25;;;0.80;99.90;;;;;;5033275;28;20053;-65
2022/03/06 03:47:17;;;;;;;20.48;10.27;;;0.90;99.90;;;;;;5034275;28;20037;-65
2022/03/06 03:49:44;;;;;;;17.52;9.90;;;0.90;99.90;;;;;;5032055;28;20099;-65
2022/03/06 03:52:11;;;;;;;16.83;9.60;;;0.90;99.90;;;;;;5033472;28;20044;-65
2022/03/06 03:54:39;;;;;;;19.23;10.45;;;0.90;99.90;;;;;;5032282;28;20045;-65
2022/03/06 03:57:06;;;;;;;18.60;10.90;;;0.90;99.90;;;;;;5041762;28;20492;-65
2022/03/06 03:59:34;;;;;;;17.60;9.57;;;0.90;99.90;;;;;;4995691;28;20058;-65
2022/03/06 04:02:03;;;;;;;16.95;9.68;;;0.90;99.90;;;;;;5017693;28;20511;-66
2022/03/06 04:04:30;;;;;;;17.73;9.68;;;0.90;99.90;;;;;;5026482;28;20071;-66
2022/03/06 04:06:58;;;;;;;17.80;10.45;;;0.90;99.90;;;;;;5029937;28;20049;-65
2022/03/06 04:09:26;;;;;;;17.02;10.07;;;0.90;99.90;;;;;;5030070;28;20113;-66
2022/03/06 04:11:53;;;;;;;17.30;10.18;;;1.00;99.90;;;;;;5036864;28;20380;-64
2022/03/06 04:14:20;;;;;;;19.25;10.68;;;1.00;99.90;;;;;;5038562;28;20431;-65
2022/03/06 04:16:48;;;;;;;18.77;10.52;;;1.00;99.90;;;;;;5040443;28;20478;-65
2022/03/06 04:19:15;;;;;;;19.52;10.27;;;0.90;99.90;;;;;;5039424;28;20642;-65
2022/03/06 04:21:42;;;;;;;17.83;9.65;;;0.90;99.90;;;;;;5035548;28;20583;-65
2022/03/06 04:24:10;;;;;;;18.42;10.15;;;0.90;99.90;;;;;;5037678;28;20046;-65
2022/03/06 04:26:38;;;;;;;17.73;10.13;;;1.00;99.90;;;;;;5029210;28;20048;-66
2022/03/06 04:29:05;;;;;;;18.50;10.48;;;1.00;99.90;;;;;;5024985;28;20485;-66
2022/03/06 04:31:33;;;;;;;16.70;9.48;;;1.00;99.90;;;;;;5042063;28;20041;-65
2022/03/06 04:34:00;;;;;;;20.27;10.43;;;1.00;99.90;;;;;;5032612;28;20117;-66
2022/03/06 04:36:28;;;;;;;18.40;10.57;;;1.00;99.90;;;;;;5040803;28;20047;-65
2022/03/06 04:38:56;;;;;;;18.65;11.15;;;1.00;99.90;;;;;;5032767;28;20045;-65
2022/03/06 04:41:23;;;;;;;19.15;10.20;;;1.00;99.90;;;;;;5037653;28;20758;-65
2022/03/06 04:43:53;;;;;;;18.67;10.52;;;1.00;99.90;;;;;;5038972;28;20060;-65
2022/03/06 04:46:20;;;;;;;18.67;10.40;;;1.10;99.90;;;;;;5037604;28;20120;-65
2022/03/06 04:48:48;;;;;;;19.83;10.80;;;1.10;99.90;;;;;;5039066;28;20071;-65
2022/03/06 04:51:15;;;;;;;17.30;9.80;;;1.10;99.90;;;;;;5036966;28;20128;-65
2022/03/06 04:53:43;;;;;;;18.90;10.38;;;1.00;99.90;;;;;;5043721;28;20069;-65
2022/03/06 04:56:10;;;;;;;18.73;10.77;;;1.10;99.90;;;;;;5040202;28;20052;-65
2022/03/06 04:58:38;;;;;;;19.88;10.65;;;1.10;99.90;;;;;;5043128;28;20053;-65
2022/03/06 05:01:06;;;;;;;20.85;9.85;;;1.00;99.90;;;;;;5030618;28;20117;-65
2022/03/06 05:03:34;;;;;;;18.38;10.50;;;1.00;99.90;;;;;;5028533;28;20067;-65
2022/03/06 05:06:01;;;;;;;21.60;10.60;;;1.10;99.90;;;;;;5022548;28;20112;-65
2022/03/06 05:08:29;;;;;;;20.00;10.60;;;1.00;99.90;;;;;;5037541;28;20379;-65
2022/03/06 05:10:56;;;;;;;16.40;9.85;;;1.00;99.90;;;;;;5042825;28;20037;-65
2022/03/06 05:13:24;;;;;;;16.90;9.20;;;1.00;99.90;;;;;;5041150;28;20040;-65
2022/03/06 05:15:52;;;;;;;15.95;9.43;;;1.00;99.90;;;;;;5031241;28;20052;-65
2022/03/06 05:18:19;;;;;;;19.17;9.93;;;1.10;99.90;;;;;;5042401;28;20110;-66
2022/03/06 05:20:48;;;;;;;18.60;10.27;;;1.00;99.90;;;;;;5035340;28;20049;-65
2022/03/06 05:23:17;;;;;;;21.20;10.38;;;1.00;99.90;;;;;;5045636;28;20064;-65
2022/03/06 05:25:45;;;;;;;16.23;8.95;;;1.00;99.90;;;;;;5048823;28;20048;-65
2022/03/06 05:28:13;;;;;;;15.63;9.27;;;1.00;99.90;;;;;;5042153;28;20045;-65
2022/03/06 05:30:41;;;;;;;16.88;9.93;;;1.00;99.90;;;;;;5042166;28;20108;-65
2022/03/06 05:33:08;;;;;;;19.40;10.25;;;1.00;99.90;;;;;;5042502;28;20426;-65
2022/03/06 05:35:36;;;;;;;16.58;9.88;;;1.00;99.90;;;;;;5036004;28;20041;-65
2022/03/06 05:38:03;;;;;;;18.58;10.23;;;1.00;99.90;;;;;;5039180;28;20037;-66
2022/03/06 05:40:31;;;;;;;19.20;8.85;;;0.90;99.90;;;;;;5020753;28;20049;-65
2022/03/06 05:42:59;;;;;;;16.48;9.13;;;0.90;99.90;;;;;;5035553;28;20555;-65
2022/03/06 05:45:26;;;;;;;15.32;9.25;;;0.80;99.90;;;;;;5047844;28;20111;-65
2022/03/06 05:47:54;;;;;;;16.48;9.95;;;0.70;99.90;;;;;;5040694;28;20116;-65
2022/03/06 05:50:22;;;;;;;18.58;10.55;;;0.60;99.90;;;;;;5048991;28;20033;-65
2022/03/06 05:52:49;;;;;;;16.17;9.20;;;0.50;99.90;;;;;;5041164;28;20413;-65
2022/03/06 05:55:17;;;;;;;18.27;10.07;;;0.40;99.90;;;;;;5041734;28;20591;-66
2022/03/06 05:57:45;;;;;;;19.83;10.32;;;0.30;99.90;;;;;;5046045;28;20543;-65
2022/03/06 06:00:13;;;;;;;21.75;10.98;;;0.20;99.90;;;;;;5031831;28;20056;-65
2022/03/06 06:02:43;;;;;;;19.25;9.63;;;0.10;99.90;;;;;;5034169;28;20049;-65
2022/03/06 06:05:11;;;;;;;20.55;10.68;;;0.10;99.90;;;;;;5033644;28;20181;-65
2022/03/06 06:07:38;;;;;;;17.10;9.93;;;0.10;99.90;;;;;;5042374;28;20053;-65
2022/03/06 06:10:06;;;;;;;16.70;9.77;;;0.10;99.90;;;;;;5031549;28;20136;-65
2022/03/06 06:12:34;;;;;;;17.40;10.57;;;0.10;99.90;;;;;;5043900;28;20033;-65
2022/03/06 06:15:01;;;;;;;18.50;9.95;;;0.10;99.90;;;;;;5038946;28;20060;-65
2022/03/06 06:17:29;;;;;;;21.58;10.63;;;0.20;99.90;;;;;;5042130;28;20046;-65
2022/03/06 06:19:56;;;;;;;22.02;10.52;;;0.20;99.90;;;;;;5043263;28;20041;-65
2022/03/06 06:22:23;;;;;;;21.17;11.00;;;0.20;99.90;;;;;;5030705;28;20045;-65
2022/03/06 06:24:50;;;;;;;19.40;10.32;;;0.30;99.90;;;;;;5030803;28;20132;-65
2022/03/06 06:27:18;;;;;;;17.95;10.00;;;0.40;99.90;;;;;;5038751;28;20056;-65
2022/03/06 06:29:45;;;;;;;17.85;10.90;;;0.40;99.90;;;;;;5027236;28;20141;-65
2022/03/06 06:32:13;;;;;;;18.17;9.88;;;0.60;99.90;;;;;;5036914;28;20067;-65
2022/03/06 06:34:40;;;;;;;16.52;10.13;;;0.70;99.90;;;;;;5022659;28;20476;-66
2022/03/06 06:37:08;;;;;;;20.00;10.23;;;0.80;99.90;;;;;;5048365;28;20054;-65
2022/03/06 06:39:35;;;;;;;15.77;9.20;;;1.00;99.90;;;;;;5037794;28;20044;-65
2022/03/06 06:42:03;;;;;;;17.90;10.00;;;1.10;99.90;;;;;;5034270;28;20048;-65
2022/03/06 06:44:31;;;;;;;20.73;10.68;;;1.20;99.90;;;;;;5033164;28;20120;-66
2022/03/06 06:47:00;;;;;;;22.70;10.88;;;1.30;99.90;;;;;;5035292;28;20052;-65
2022/03/06 06:49:27;;;;;;;19.40;10.23;;;1.40;99.90;;;;;;5026141;28;20045;-66
2022/03/06 06:51:55;;;;;;;17.80;10.05;;;1.60;99.90;;;;;;5032005;28;20076;-66
2022/03/06 06:54:22;;;;;;;18.70;10.20;;;1.60;99.90;;;;;;5032219;28;20038;-66
2022/03/06 06:56:50;;;;;;;18.15;10.40;;;1.70;99.90;;;;;;5032908;28;20427;-65
2022/03/06 06:59:17;;;;;;;18.88;10.55;;;1.70;99.90;;;;;;5035933;28;20065;-65
2022/03/06 07:01:44;;;;;;;17.50;10.95;;;1.80;99.90;;;;;;5012961;28;20547;-66
2022/03/06 07:04:12;;;;;;;17.83;9.85;;;1.80;99.90;;;;;;5031046;28;20091;-66
2022/03/06 07:06:39;;;;;;;17.70;10.57;;;1.80;99.90;;;;;;5030096;28;20041;-66
2022/03/06 07:09:06;;;;;;;19.77;10.13;;;1.80;99.90;;;;;;5034069;28;20091;-66
2022/03/06 07:11:33;;;;;;;19.95;10.68;;;1.80;99.90;;;;;;5039890;28;20042;-66
2022/03/06 07:14:01;;;;;;;18.08;10.48;;;1.80;99.90;;;;;;5042532;28;20080;-66
2022/03/06 07:16:31;;;;;;;17.75;9.98;;;1.80;99.90;;;;;;5024809;28;20048;-66
2022/03/06 07:18:59;;;;;;;17.73;10.68;;;1.70;99.90;;;;;;5041764;28;20519;-65
2022/03/06 07:21:26;;;;;;;18.55;10.85;;;1.70;99.90;;;;;;5031357;28;20052;-65
2022/03/06 07:23:54;;;;;;;19.20;11.07;;;1.70;99.90;;;;;;5041658;28;20060;-66
2022/03/06 07:26:21;;;;;;;20.48;10.88;;;1.70;99.90;;;;;;5044915;28;20041;-65
2022/03/06 07:28:48;;;;;;;20.17;11.60;;;1.70;99.90;;;;;;5027628;28;20045;-66
2022/03/06 07:31:16;;;;;;;20.90;11.52;;;1.80;99.90;;;;;;5028500;28;20116;-66
2022/03/06 07:33:44;;;;;;;20.65;10.88;;;1.80;99.90;;;;;;5033439;28;20065;-66
2022/03/06 07:36:11;;;;;;;21.65;11.90;;;1.80;99.90;;;;;;5049786;28;20048;-65
2022/03/06 07:38:39;;;;;;;20.23;10.93;;;1.80;99.90;;;;;;5051497;28;20508;-66
2022/03/06 07:41:07;;;;;;;18.38;10.95;;;1.80;99.90;;;;;;5027676;28;20050;-66
2022/03/06 07:43:35;;;;;;;18.10;10.88;;;1.80;99.90;;;;;;5030048;28;20053;-65
2022/03/06 07:46:03;;;;;;;17.90;10.27;;;1.90;99.90;;;;;;5030253;28;20046;-66
2022/03/06 07:48:30;;;;;;;19.58;11.20;;;1.90;99.90;;;;;;5035459;28;20046;-66
2022/03/06 07:50:57;;;;;;;20.98;11.13;;;2.10;99.90;;;;;;5041425;28;20645;-65
2022/03/06 07:53:25;;;;;;;25.35;11.38;;;2.10;99.90;;;;;;5040721;28;20033;-66
2022/03/06 07:55:52;;;;;;;23.83;12.25;;;2.20;99.90;;;;;;5042765;28;20504;-66
2022/03/06 07:58:20;;;;;;;22.05;11.60;;;2.20;99.90;;;;;;5033534;28;20575;-66
2022/03/06 08:00:47;;;;;;;25.88;13.10;;;2.30;99.90;;;;;;5040528;28;20045;-66
2022/03/06 08:03:15;;;;;;;22.50;11.82;;;2.40;99.90;;;;;;5017907;28;20373;-67
2022/03/06 08:05:44;;;;;;;25.13;12.50;;;2.40;99.90;;;;;;5019087;28;20508;-66
2022/03/06 08:08:11;;;;;;;25.15;13.98;;;2.50;99.90;;;;;;5028066;28;20048;-66
2022/03/06 08:10:39;;;;;;;23.35;13.40;;;2.40;99.90;;;;;;5025567;28;20420;-66
2022/03/06 08:13:06;;;;;;;21.70;12.57;;;2.40;99.90;;;;;;5038121;28;20495;-65
2022/03/06 08:15:33;;;;;;;24.17;12.73;;;2.40;99.90;;;;;;5033532;28;20492;-66
2022/03/06 08:18:01;;;;;;;24.85;12.65;;;2.40;99.90;;;;;;5044864;28;20045;-66
2022/03/06 08:20:28;;;;;;;23.85;12.90;;;2.40;99.90;;;;;;5034899;28;20132;-66
2022/03/06 08:22:56;;;;;;;21.92;12.38;;;2.40;99.90;;;;;;5034340;28;20049;-67
2022/03/06 08:25:23;;;;;;;19.90;11.73;;;2.40;99.90;;;;;;5028960;28;20041;-66
2022/03/06 08:27:50;;;;;;;22.27;13.00;;;2.40;99.90;;;;;;5011845;28;20508;-66
2022/03/06 08:30:17;;;;;;;24.13;12.35;;;2.50;99.90;;;;;;5030897;28;20457;-66
2022/03/06 08:32:45;;;;;;;21.63;12.05;;;2.70;99.90;;;;;;5036765;28;20044;-65
2022/03/06 08:35:12;;;;;;;21.98;11.80;;;2.90;99.90;;;;;;5032223;28;20413;-67
2022/03/06 08:37:39;;;;;;;22.50;12.88;;;3.10;99.90;;;;;;5036162;28;20171;-66
2022/03/06 08:40:08;;;;;;;19.58;11.65;;;3.40;99.90;;;;;;5030726;28;20037;-65
2022/03/06 08:42:36;;;;;;;20.52;11.38;;;3.70;99.90;;;;;;5036416;28;20046;-66
2022/03/06 08:45:04;;;;;;;21.35;11.18;;;3.90;99.90;;;;;;5031484;28;20551;-67
2022/03/06 08:47:32;;;;;;;19.33;12.05;;;4.30;99.90;;;;;;5029877;28;20058;-67
2022/03/06 08:49:59;;;;;;;18.92;9.98;;;4.60;99.90;;;;;;5036583;28;20052;-66
2022/03/06 08:52:26;;;;;;;19.95;11.00;;;4.90;99.90;;;;;;5031705;28;20555;-66
2022/03/06 08:54:54;;;;;;;19.88;11.48;;;5.00;99.90;;;;;;5031395;28;20068;-66
2022/03/06 08:57:23;;;;;;;17.48;10.38;;;5.10;99.90;;;;;;5036351;28;20053;-67
2022/03/06 08:59:50;;;;;;;20.35;11.23;;;5.20;99.90;;;;;;5038389;28;20049;-66
2022/03/06 09:02:18;;;;;;;19.40;10.60;;;5.20;99.90;;;;;;5036170;28;20751;-67
2022/03/06 09:04:45;;;;;;;16.38;9.95;;;5.20;99.90;;;;;;5038690;28;20065;-67
2022/03/06 09:07:13;;;;;;;18.17;10.65;;;5.20;99.90;;;;;;5042435;28;20049;-66
2022/03/06 09:09:40;;;;;;;16.90;10.43;;;5.30;99.90;;;;;;5037733;28;20487;-65
2022/03/06 09:12:08;;;;;;;16.45;9.45;;;5.30;99.90;;;;;;5033190;28;20049;-67
2022/03/06 09:14:35;;;;;;;18.27;10.65;;;5.30;99.90;;;;;;5052252;28;20045;-66
2022/03/06 09:17:03;;;;;;;19.40;10.90;;;5.40;99.90;;;;;;5045907;28;20380;-66
2022/03/06 09:19:30;;;;;;;19.77;10.43;;;5.40;99.90;;;;;;5044050;28;20080;-67
2022/03/06 09:21:58;;;;;;;24.05;11.68;;;5.60;99.90;;;;;;5025909;28;20052;-66
2022/03/06 09:24:25;;;;;;;16.73;9.75;;;5.80;99.90;;;;;;5045827;28;20087;-67
2022/03/06 09:26:53;;;;;;;14.15;8.85;;;6.20;99.90;;;;;;5048563;28;20443;-67
2022/03/06 09:29:20;;;;;;;14.00;8.70;;;6.40;99.90;;;;;;5044240;28;20042;-66
2022/03/06 09:31:48;;;;;;;14.13;8.90;;;6.70;99.90;;;;;;5043766;28;20049;-67
2022/03/06 09:34:15;;;;;;;12.18;7.72;;;6.90;99.90;;;;;;5046492;28;20042;-66
2022/03/06 09:36:46;;;;;;;12.27;7.20;;;7.00;99.90;;;;;;5038113;28;20042;-66
2022/03/06 09:39:14;;;;;;;14.57;7.78;;;7.10;99.90;;;;;;5038411;28;20046;-68
2022/03/06 09:41:42;;;;;;;10.88;6.82;;;7.00;99.90;;;;;;5032601;28;20523;-67
2022/03/06 09:44:12;;;;;;;11.07;6.80;;;6.90;99.90;;;;;;5030152;28;20045;-65
2022/03/06 09:46:41;;;;;;;13.10;7.25;;;7.00;99.90;;;;;;5035858;28;20163;-67
2022/03/06 09:49:08;;;;;;;10.38;6.80;;;7.10;99.90;;;;;;5046684;28;20424;-67
2022/03/06 09:51:39;;;;;;;15.52;8.43;;;7.10;99.90;;;;;;5035260;28;20398;-66
2022/03/06 09:54:12;;;;;;;14.15;8.40;;;7.00;99.90;;;;;;5018495;28;20064;-67
2022/03/06 09:56:40;;;;;;;11.45;6.80;;;7.10;99.90;;;;;;5042941;28;20095;-67
2022/03/06 09:59:08;;;;;;;11.27;6.75;;;7.00;99.90;;;;;;5045659;28;20046;-67
2022/03/06 10:01:35;;;;;;;10.20;7.32;;;6.90;99.90;;;;;;5049426;28;20060;-66
2022/03/06 10:04:26;;;;;;;11.32;7.13;;;7.00;99.60;;;;;;5037725;28;20844;-66
2022/03/06 10:07:04;;;;;;;12.32;6.97;;;7.00;99.40;;;;;;5032766;28;20069;-66
2022/03/06 10:09:54;;;;;;;14.02;8.82;;;6.90;99.50;;;;;;5016775;28;20049;-66
2022/03/06 10:12:27;;;;;;;14.50;9.48;;;6.90;99.50;;;;;;5026908;28;20418;-67
2022/03/06 10:15:04;;;;;;;18.13;9.35;;;6.90;99.20;;;;;;5032584;28;20555;-67
2022/03/06 10:17:33;;;;;;;15.05;8.40;;;7.00;98.80;;;;;;5037755;28;20056;-67
2022/03/06 10:20:05;;;;;;;15.02;8.43;;;7.10;98.60;;;;;;5041591;28;20416;-67
2022/03/06 10:22:41;;;;;;;11.05;7.43;;;7.20;98.20;;;;;;5035372;28;20065;-67
2022/03/06 10:25:10;;;;;;;13.32;7.68;;;7.40;97.70;;;;;;5030636;28;20133;-66
2022/03/06 10:27:57;;;;;;;11.90;7.45;;;7.40;97.60;;;;;;5035175;28;20076;-67
2022/03/06 10:30:33;;;;;;;11.07;6.78;;;7.50;97.60;;;;;;5041559;28;20542;-66
2022/03/06 10:33:22;;;;;;;10.15;7.00;;;7.80;97.20;;;;;;5028549;28;20057;-67
2022/03/06 10:35:50;;;;;;;11.18;7.15;;;8.10;96.80;;;;;;5035158;28;20066;-67
2022/03/06 10:38:20;;;;;;;10.82;6.72;;;8.40;96.10;;;;;;5043987;28;20403;-67
2022/03/06 10:40:49;;;;;;;13.35;6.90;;;8.50;95.40;;;;;;5040482;28;20038;-67
2022/03/06 10:43:18;;;;;;;11.18;7.18;;;8.60;94.70;;;;;;5039141;28;20053;-67
2022/03/06 10:45:47;;;;;;;10.65;6.68;;;8.60;94.50;;;;;;5037620;28;20121;-67
2022/03/06 10:48:15;;;;;;;10.68;6.53;;;8.60;94.30;;;;;;5033833;28;20111;-67
2022/03/06 10:50:43;;;;;;;10.18;6.68;;;8.70;94.10;;;;;;5033437;28;20069;-67
2022/03/06 10:53:37;;;;;;;10.00;6.68;;;8.80;93.60;;;;;;5016093;28;20594;-66
2022/03/06 10:56:15;;;;;;;11.73;7.03;;;8.90;93.50;;;;;;5045859;28;20051;-65
2022/03/06 10:58:44;;;;;;;10.27;6.43;;;8.90;92.70;;;;;;5041510;28;20055;-66
2022/03/06 11:01:29;;;;;;;9.27;6.82;;;8.90;92.80;;;;;;5036487;28;20081;-66
2022/03/06 11:04:02;;;;;;;12.05;7.45;;;8.90;92.90;;;;;;5044203;28;20045;-66
2022/03/06 11:06:37;;;;;;;12.55;7.28;;;9.10;92.80;;;;;;5043640;28;20045;-66
2022/03/06 11:09:06;;;;;;;12.10;6.93;;;9.30;92.60;;;;;;5033652;28;20039;-66
2022/03/06 11:11:34;;;;;;;14.93;8.48;;;9.70;92.30;;;;;;5036800;28;20098;-66
2022/03/06 11:14:02;;;;;;;16.90;10.18;;;9.90;91.30;;;;;;5040002;28;20049;-66
2022/03/06 11:16:30;;;;;;;12.60;7.25;;;9.90;91.60;;;;;;5037978;28;20548;-66
2022/03/06 11:18:59;;;;;;;11.88;7.32;;;9.70;91.10;;;;;;5037079;28;20045;-67
2022/03/06 11:21:28;;;;;;;10.55;6.72;;;9.70;91.20;;;;;;5039962;28;20055;-68
2022/03/06 11:23:57;;;;;;;11.65;7.30;;;9.70;91.20;;;;;;5033854;28;20389;-67
2022/03/06 11:27:09;;;;;;;11.00;7.05;;;9.50;91.10;;;;;;5033616;28;20045;-67
2022/03/06 11:29:50;;;;;;;12.40;7.25;;;9.20;91.40;;;;;;5029842;28;20060;-65
2022/03/06 11:32:27;;;;;;;11.50;6.85;;;9.00;91.30;;;;;;5012291;28;20572;-66
2022/03/06 11:35:08;;;;;;;10.18;6.78;;;8.70;91.20;;;;;;5025656;28;20539;-66
2022/03/06 11:38:05;;;;;;;9.48;6.10;;;8.60;91.60;;;;;;5032735;28;20129;-67
2022/03/06 11:40:48;;;;;;;9.35;6.60;;;8.50;91.30;;;;;;5033820;28;20060;-66
2022/03/06 11:43:55;;;;;;;12.75;7.18;;;8.40;91.60;;;;;;5031916;28;20073;-67
2022/03/06 11:46:24;;;;;;;9.48;6.32;;;8.40;91.20;;;;;;5036768;28;20042;-66
2022/03/06 11:48:51;;;;;;;10.80;6.32;;;8.20;91.30;;;;;;5032964;28;20596;-66
2022/03/06 11:51:27;;;;;;;8.60;5.78;;;8.10;91.40;;;;;;5025693;28;20049;-66
2022/03/06 11:54:02;;;;;;;10.75;6.28;;;8.20;91.50;;;;;;5006303;28;20042;-66
2022/03/06 11:59:04;;;;;;;8.38;6.07;;;8.20;91.20;;;;;;5038621;28;20088;-67
2022/03/06 12:01:40;;;;;;;9.48;6.40;;;8.50;90.90;;;;;;5029205;28;20461;-66
2022/03/06 12:04:15;;;;;;;10.23;6.40;;;8.60;91.10;;;;;;5022944;28;20459;-65
2022/03/06 12:07:05;;;;;;;7.60;5.70;;;8.70;91.10;;;;;;5034015;28;20128;-67
2022/03/06 12:09:39;;;;;;;9.55;6.55;;;8.70;91.10;;;;;;5031611;28;20421;-65
2022/03/06 12:12:08;;;;;;;10.65;6.50;;;8.60;91.00;;;;;;5032109;28;20033;-66
2022/03/06 12:14:38;;;;;;;9.70;6.60;;;8.50;91.40;;;;;;5032971;28;20416;-67
2022/03/06 12:17:07;;;;;;;12.07;6.70;;;8.60;91.40;;;;;;5033656;28;20049;-66
2022/03/06 12:19:44;;;;;;;10.43;6.10;;;8.80;91.30;;;;;;5027095;28;20053;-67
2022/03/06 12:22:20;;;;;;;12.93;6.10;;;8.90;90.90;;;;;;5030547;28;20041;-65
2022/03/06 12:24:50;;;;;;;10.75;6.18;;;8.80;91.00;;;;;;5027699;28;20057;-67
2022/03/06 12:27:20;;;;;;;11.07;6.22;;;8.80;90.90;;;;;;5039122;28;20049;-67
2022/03/06 12:29:47;;;;;;;9.73;6.82;;;8.90;90.70;;;;;;5043443;28;20529;-66
2022/03/06 12:32:31;;;;;;;9.25;6.25;;;8.80;90.60;;;;;;5031976;28;20055;-67
2022/03/06 12:35:02;;;;;;;10.82;7.07;;;8.80;90.60;;;;;;5033265;28;20053;-67
2022/03/06 12:37:42;;;;;;;11.38;7.20;;;8.80;90.80;;;;;;5027450;28;20546;-67
2022/03/06 12:40:16;;;;;;;10.85;6.93;;;8.80;90.50;;;;;;5035223;28;20049;-66
2022/03/06 12:42:51;;;;;;;9.48;6.65;;;8.80;90.30;;;;;;5033673;28;20048;-67
2022/03/06 12:45:19;;;;;;;10.68;6.80;;;8.60;90.50;;;;;;5039875;28;20421;-67
2022/03/06 12:47:47;;;;;;;9.43;6.70;;;8.40;90.40;;;;;;5045809;28;20045;-66
2022/03/06 12:50:17;;;;;;;10.13;6.65;;;8.20;90.50;;;;;;5046125;28;20116;-66
2022/03/06 12:52:46;;;;;;;9.68;6.30;;;8.20;90.60;;;;;;5040335;28;20045;-66
2022/03/06 12:55:17;;;;;;;9.55;6.65;;;8.00;90.70;;;;;;5028244;28;20041;-66
2022/03/06 12:57:54;;;;;;;9.43;6.97;;;7.90;91.00;;;;;;5035740;28;20500;-66